sensor_id;sensor_type;location;lat;lon;timestamp;temperature;humidity
64718;DHT22;62506;46.070;14.492;2023-04-24T00:00:04;22.20;57.30
64718;DHT22;62506;46.070;14.492;2023-04-24T00:02:39;22.20;57.40
64718;DHT22;62506;46.070;14.492;2023-04-24T00:05:05;22.20;57.40
64718;DHT22;62506;46.070;14.492;2023-04-24T00:07:31;22.20;57.40
64718;DHT22;62506;46.070;14.492;2023-04-24T00:09:57;22.20;57.30
64718;DHT22;62506;46.070;14.492;2023-04-24T00:12:23;22.20;57.30
64718;DHT22;62506;46.070;14.492;2023-04-24T00:14:48;22.20;57.20
64718;DHT22;62506;46.070;14.492;2023-04-24T00:17:14;22.30;57.30
64718;DHT22;62506;46.070;14.492;2023-04-24T00:19:39;22.20;57.20
64718;DHT22;62506;46.070;14.492;2023-04-24T00:22:05;22.30;57.20
64718;DHT22;62506;46.070;14.492;2023-04-24T00:24:30;22.30;57.40
64718;DHT22;62506;46.070;14.492;2023-04-24T00:26:56;22.30;57.20
64718;DHT22;62506;46.070;14.492;2023-04-24T00:29:21;22.30;57.30
64718;DHT22;62506;46.070;14.492;2023-04-24T00:31:47;22.30;57.20
64718;DHT22;62506;46.070;14.492;2023-04-24T00:34:12;22.30;57.20
64718;DHT22;62506;46.070;14.492;2023-04-24T00:36:38;22.20;57.20
64718;DHT22;62506;46.070;14.492;2023-04-24T00:39:04;22.30;57.30
64718;DHT22;62506;46.070;14.492;2023-04-24T00:41:30;22.30;57.40
64718;DHT22;62506;46.070;14.492;2023-04-24T00:43:55;22.30;57.20
64718;DHT22;62506;46.070;14.492;2023-04-24T00:46:21;22.30;57.30
64718;DHT22;62506;46.070;14.492;2023-04-24T00:48:46;22.30;57.20
64718;DHT22;62506;46.070;14.492;2023-04-24T00:51:12;22.30;57.30
64718;DHT22;62506;46.070;14.492;2023-04-24T00:53:37;22.30;57.30
64718;DHT22;62506;46.070;14.492;2023-04-24T00:56:03;22.30;57.40
64718;DHT22;62506;46.070;14.492;2023-04-24T00:58:29;22.30;57.10
64718;DHT22;62506;46.070;14.492;2023-04-24T01:00:56;22.30;57.20
64718;DHT22;62506;46.070;14.492;2023-04-24T01:03:25;22.30;57.20
64718;DHT22;62506;46.070;14.492;2023-04-24T01:05:52;22.30;57.30
64718;DHT22;62506;46.070;14.492;2023-04-24T01:08:19;22.30;57.20
64718;DHT22;62506;46.070;14.492;2023-04-24T01:10:46;22.30;57.10
64718;DHT22;62506;46.070;14.492;2023-04-24T01:13:11;22.30;57.20
64718;DHT22;62506;46.070;14.492;2023-04-24T01:15:37;22.30;57.20
64718;DHT22;62506;46.070;14.492;2023-04-24T01:18:03;22.30;57.20
64718;DHT22;62506;46.070;14.492;2023-04-24T01:20:28;22.20;57.20
64718;DHT22;62506;46.070;14.492;2023-04-24T01:22:55;22.30;57.20
64718;DHT22;62506;46.070;14.492;2023-04-24T01:25:21;22.30;57.20
64718;DHT22;62506;46.070;14.492;2023-04-24T01:27:47;22.30;57.30
64718;DHT22;62506;46.070;14.492;2023-04-24T01:30:13;22.30;57.50
64718;DHT22;62506;46.070;14.492;2023-04-24T01:32:38;22.30;57.30
64718;DHT22;62506;46.070;14.492;2023-04-24T01:35:05;22.30;57.30
64718;DHT22;62506;46.070;14.492;2023-04-24T01:37:31;22.30;57.30
64718;DHT22;62506;46.070;14.492;2023-04-24T01:39:58;22.30;57.30
64718;DHT22;62506;46.070;14.492;2023-04-24T01:42:24;22.20;57.20
64718;DHT22;62506;46.070;14.492;2023-04-24T01:44:50;22.20;57.20
64718;DHT22;62506;46.070;14.492;2023-04-24T01:47:16;22.30;57.30
64718;DHT22;62506;46.070;14.492;2023-04-24T01:49:42;22.20;57.30
64718;DHT22;62506;46.070;14.492;2023-04-24T01:52:07;22.20;57.20
64718;DHT22;62506;46.070;14.492;2023-04-24T01:54:33;22.20;57.30
64718;DHT22;62506;46.070;14.492;2023-04-24T01:56:58;22.20;57.30
64718;DHT22;62506;46.070;14.492;2023-04-24T01:59:25;22.20;57.30
64718;DHT22;62506;46.070;14.492;2023-04-24T02:01:52;22.20;57.50
64718;DHT22;62506;46.070;14.492;2023-04-24T02:04:18;22.20;57.40
64718;DHT22;62506;46.070;14.492;2023-04-24T02:06:43;22.20;57.50
64718;DHT22;62506;46.070;14.492;2023-04-24T02:09:08;22.20;57.50
64718;DHT22;62506;46.070;14.492;2023-04-24T02:11:36;22.20;57.50
64718;DHT22;62506;46.070;14.492;2023-04-24T02:14:01;22.20;57.50
64718;DHT22;62506;46.070;14.492;2023-04-24T02:16:28;22.20;57.50
64718;DHT22;62506;46.070;14.492;2023-04-24T02:18:55;22.20;57.60
64718;DHT22;62506;46.070;14.492;2023-04-24T02:21:20;22.10;57.60
64718;DHT22;62506;46.070;14.492;2023-04-24T02:23:46;22.20;57.70
64718;DHT22;62506;46.070;14.492;2023-04-24T02:26:12;22.10;57.60
64718;DHT22;62506;46.070;14.492;2023-04-24T02:28:37;22.10;57.60
64718;DHT22;62506;46.070;14.492;2023-04-24T02:31:03;22.10;57.60
64718;DHT22;62506;46.070;14.492;2023-04-24T02:33:28;22.10;57.60
64718;DHT22;62506;46.070;14.492;2023-04-24T02:35:54;22.10;57.70
64718;DHT22;62506;46.070;14.492;2023-04-24T02:38:19;22.10;57.70
64718;DHT22;62506;46.070;14.492;2023-04-24T02:40:45;22.10;57.70
64718;DHT22;62506;46.070;14.492;2023-04-24T02:43:10;22.10;57.70
64718;DHT22;62506;46.070;14.492;2023-04-24T02:45:36;22.10;57.60
64718;DHT22;62506;46.070;14.492;2023-04-24T02:48:03;22.10;57.70
64718;DHT22;62506;46.070;14.492;2023-04-24T02:50:28;22.10;57.80
64718;DHT22;62506;46.070;14.492;2023-04-24T02:52:54;22.10;57.70
64718;DHT22;62506;46.070;14.492;2023-04-24T02:55:20;22.10;57.70
64718;DHT22;62506;46.070;14.492;2023-04-24T02:57:46;22.10;57.70
64718;DHT22;62506;46.070;14.492;2023-04-24T03:00:12;22.10;57.70
64718;DHT22;62506;46.070;14.492;2023-04-24T03:02:38;22.10;57.70
64718;DHT22;62506;46.070;14.492;2023-04-24T03:05:04;22.10;57.70
64718;DHT22;62506;46.070;14.492;2023-04-24T03:07:29;22.10;57.80
64718;DHT22;62506;46.070;14.492;2023-04-24T03:09:56;22.10;57.80
64718;DHT22;62506;46.070;14.492;2023-04-24T03:12:23;22.10;57.80
64718;DHT22;62506;46.070;14.492;2023-04-24T03:14:49;22.10;57.80
64718;DHT22;62506;46.070;14.492;2023-04-24T03:17:14;22.10;57.70
64718;DHT22;62506;46.070;14.492;2023-04-24T03:19:40;22.10;57.70
64718;DHT22;62506;46.070;14.492;2023-04-24T03:22:05;22.10;57.60
64718;DHT22;62506;46.070;14.492;2023-04-24T03:24:31;22.10;57.60
64718;DHT22;62506;46.070;14.492;2023-04-24T03:26:56;22.20;57.60
64718;DHT22;62506;46.070;14.492;2023-04-24T03:29:22;22.10;57.60
64718;DHT22;62506;46.070;14.492;2023-04-24T03:31:48;22.10;57.60
64718;DHT22;62506;46.070;14.492;2023-04-24T03:34:13;22.10;57.70
64718;DHT22;62506;46.070;14.492;2023-04-24T03:36:39;22.10;57.70
64718;DHT22;62506;46.070;14.492;2023-04-24T03:39:05;22.20;57.70
64718;DHT22;62506;46.070;14.492;2023-04-24T03:41:30;22.20;57.70
64718;DHT22;62506;46.070;14.492;2023-04-24T03:43:56;22.20;57.70
64718;DHT22;62506;46.070;14.492;2023-04-24T03:46:21;22.20;57.60
64718;DHT22;62506;46.070;14.492;2023-04-24T03:48:47;22.20;57.60
64718;DHT22;62506;46.070;14.492;2023-04-24T03:51:12;22.20;57.50
64718;DHT22;62506;46.070;14.492;2023-04-24T03:53:38;22.20;57.50
64718;DHT22;62506;46.070;14.492;2023-04-24T03:56:03;22.20;57.50
64718;DHT22;62506;46.070;14.492;2023-04-24T03:58:29;22.20;57.50
64718;DHT22;62506;46.070;14.492;2023-04-24T04:00:54;22.20;57.50
64718;DHT22;62506;46.070;14.492;2023-04-24T04:03:22;22.20;57.40
64718;DHT22;62506;46.070;14.492;2023-04-24T04:05:47;22.20;57.50
64718;DHT22;62506;46.070;14.492;2023-04-24T04:08:13;22.20;57.40
64718;DHT22;62506;46.070;14.492;2023-04-24T04:10:38;22.20;57.40
64718;DHT22;62506;46.070;14.492;2023-04-24T04:13:04;22.20;57.40
64718;DHT22;62506;46.070;14.492;2023-04-24T04:15:30;22.20;57.40
64718;DHT22;62506;46.070;14.492;2023-04-24T04:17:56;22.20;57.40
64718;DHT22;62506;46.070;14.492;2023-04-24T04:20:21;22.20;57.40
64718;DHT22;62506;46.070;14.492;2023-04-24T04:22:47;22.20;57.40
64718;DHT22;62506;46.070;14.492;2023-04-24T04:25:12;22.20;57.40
64718;DHT22;62506;46.070;14.492;2023-04-24T04:27:38;22.20;57.40
64718;DHT22;62506;46.070;14.492;2023-04-24T04:30:04;22.20;57.50
64718;DHT22;62506;46.070;14.492;2023-04-24T04:32:31;22.20;57.60
64718;DHT22;62506;46.070;14.492;2023-04-24T04:34:58;22.20;57.60
64718;DHT22;62506;46.070;14.492;2023-04-24T04:37:34;22.20;57.60
64718;DHT22;62506;46.070;14.492;2023-04-24T04:39:59;22.20;57.80
64718;DHT22;62506;46.070;14.492;2023-04-24T04:42:25;22.20;58.20
64718;DHT22;62506;46.070;14.492;2023-04-24T04:44:52;22.20;58.20
64718;DHT22;62506;46.070;14.492;2023-04-24T04:47:18;22.20;58.30
64718;DHT22;62506;46.070;14.492;2023-04-24T04:49:44;22.20;58.40
64718;DHT22;62506;46.070;14.492;2023-04-24T04:52:10;22.20;58.30
64718;DHT22;62506;46.070;14.492;2023-04-24T04:54:35;22.20;58.50
64718;DHT22;62506;46.070;14.492;2023-04-24T04:57:01;22.20;58.40
64718;DHT22;62506;46.070;14.492;2023-04-24T04:59:26;22.20;58.30
64718;DHT22;62506;46.070;14.492;2023-04-24T05:01:52;22.20;58.10
64718;DHT22;62506;46.070;14.492;2023-04-24T05:04:18;22.20;57.50
64718;DHT22;62506;46.070;14.492;2023-04-24T05:06:43;22.20;57.60
64718;DHT22;62506;46.070;14.492;2023-04-24T05:09:09;22.20;58.00
64718;DHT22;62506;46.070;14.492;2023-04-24T05:11:34;22.20;58.10
64718;DHT22;62506;46.070;14.492;2023-04-24T05:14:00;22.20;58.20
64718;DHT22;62506;46.070;14.492;2023-04-24T05:16:26;22.20;58.30
64718;DHT22;62506;46.070;14.492;2023-04-24T05:18:52;22.20;58.70
64718;DHT22;62506;46.070;14.492;2023-04-24T05:21:18;22.20;58.50
64718;DHT22;62506;46.070;14.492;2023-04-24T05:23:43;22.20;58.40
64718;DHT22;62506;46.070;14.492;2023-04-24T05:26:09;22.30;58.70
64718;DHT22;62506;46.070;14.492;2023-04-24T05:33:45;22.40;58.10
64718;DHT22;62506;46.070;14.492;2023-04-24T05:36:11;22.40;57.90
64718;DHT22;62506;46.070;14.492;2023-04-24T05:38:36;22.40;57.80
64718;DHT22;62506;46.070;14.492;2023-04-24T05:41:02;22.50;57.70
64718;DHT22;62506;46.070;14.492;2023-04-24T05:43:27;22.50;57.80
64718;DHT22;62506;46.070;14.492;2023-04-24T05:45:53;22.50;57.80
64718;DHT22;62506;46.070;14.492;2023-04-24T05:48:19;22.50;57.70
64718;DHT22;62506;46.070;14.492;2023-04-24T05:50:44;22.50;57.90
64718;DHT22;62506;46.070;14.492;2023-04-24T05:53:10;22.50;57.80
64718;DHT22;62506;46.070;14.492;2023-04-24T05:55:36;22.60;57.90
64718;DHT22;62506;46.070;14.492;2023-04-24T05:58:01;22.60;57.80
64718;DHT22;62506;46.070;14.492;2023-04-24T06:00:27;22.50;57.70
64718;DHT22;62506;46.070;14.492;2023-04-24T06:02:53;22.60;58.10
64718;DHT22;62506;46.070;14.492;2023-04-24T06:05:19;22.60;57.80
64718;DHT22;62506;46.070;14.492;2023-04-24T06:07:45;22.50;57.80
64718;DHT22;62506;46.070;14.492;2023-04-24T06:10:11;22.50;57.80
64718;DHT22;62506;46.070;14.492;2023-04-24T06:12:36;22.50;57.60
64718;DHT22;62506;46.070;14.492;2023-04-24T06:15:02;22.50;56.90
64718;DHT22;62506;46.070;14.492;2023-04-24T06:17:28;22.40;56.40
64718;DHT22;62506;46.070;14.492;2023-04-24T06:19:54;22.40;57.00
64718;DHT22;62506;46.070;14.492;2023-04-24T06:22:19;22.30;57.20
64718;DHT22;62506;46.070;14.492;2023-04-24T06:24:45;22.30;57.40
64718;DHT22;62506;46.070;14.492;2023-04-24T06:27:11;22.40;57.50
64718;DHT22;62506;46.070;14.492;2023-04-24T06:29:36;22.40;57.30
64718;DHT22;62506;46.070;14.492;2023-04-24T06:32:02;22.40;57.50
64718;DHT22;62506;46.070;14.492;2023-04-24T06:34:27;22.40;57.50
64718;DHT22;62506;46.070;14.492;2023-04-24T06:36:53;22.30;57.50
64718;DHT22;62506;46.070;14.492;2023-04-24T06:39:19;22.40;57.10
64718;DHT22;62506;46.070;14.492;2023-04-24T06:41:44;22.40;55.00
64718;DHT22;62506;46.070;14.492;2023-04-24T06:44:10;22.30;55.70
64718;DHT22;62506;46.070;14.492;2023-04-24T06:46:35;22.20;56.70
64718;DHT22;62506;46.070;14.492;2023-04-24T06:49:01;22.20;53.20
64718;DHT22;62506;46.070;14.492;2023-04-24T06:51:27;22.10;54.40
64718;DHT22;62506;46.070;14.492;2023-04-24T06:53:53;22.10;55.50
64718;DHT22;62506;46.070;14.492;2023-04-24T06:56:18;22.10;56.00
64718;DHT22;62506;46.070;14.492;2023-04-24T06:58:44;22.20;56.30
64718;DHT22;62506;46.070;14.492;2023-04-24T07:01:10;22.20;56.30
64718;DHT22;62506;46.070;14.492;2023-04-24T07:03:36;22.20;56.40
64718;DHT22;62506;46.070;14.492;2023-04-24T07:06:01;22.30;56.40
64718;DHT22;62506;46.070;14.492;2023-04-24T07:08:29;22.30;56.50
64718;DHT22;62506;46.070;14.492;2023-04-24T07:10:56;22.30;56.60
64718;DHT22;62506;46.070;14.492;2023-04-24T07:13:22;22.30;56.50
64718;DHT22;62506;46.070;14.492;2023-04-24T07:15:47;22.30;56.50
64718;DHT22;62506;46.070;14.492;2023-04-24T07:18:15;22.30;56.50
64718;DHT22;62506;46.070;14.492;2023-04-24T07:20:41;22.40;56.70
64718;DHT22;62506;46.070;14.492;2023-04-24T07:23:06;22.40;56.60
64718;DHT22;62506;46.070;14.492;2023-04-24T07:25:32;22.30;56.70
64718;DHT22;62506;46.070;14.492;2023-04-24T07:27:58;22.30;56.70
64718;DHT22;62506;46.070;14.492;2023-04-24T07:30:24;22.30;56.70
64718;DHT22;62506;46.070;14.492;2023-04-24T07:32:49;22.40;56.70
64718;DHT22;62506;46.070;14.492;2023-04-24T07:35:15;22.40;56.80
64718;DHT22;62506;46.070;14.492;2023-04-24T07:37:41;22.40;57.00
64718;DHT22;62506;46.070;14.492;2023-04-24T07:40:11;22.40;56.80
64718;DHT22;62506;46.070;14.492;2023-04-24T07:42:37;22.40;56.90
64718;DHT22;62506;46.070;14.492;2023-04-24T07:45:03;22.40;56.90
64718;DHT22;62506;46.070;14.492;2023-04-24T07:47:31;22.30;57.10
64718;DHT22;62506;46.070;14.492;2023-04-24T07:49:57;22.40;57.00
64718;DHT22;62506;46.070;14.492;2023-04-24T07:52:23;22.40;56.90
64718;DHT22;62506;46.070;14.492;2023-04-24T07:54:48;22.40;57.00
64718;DHT22;62506;46.070;14.492;2023-04-24T07:57:15;22.40;56.90
64718;DHT22;62506;46.070;14.492;2023-04-24T07:59:41;22.40;57.00
64718;DHT22;62506;46.070;14.492;2023-04-24T08:02:06;22.40;56.80
64718;DHT22;62506;46.070;14.492;2023-04-24T08:04:32;22.40;56.70
64718;DHT22;62506;46.070;14.492;2023-04-24T08:06:58;22.40;56.80
64718;DHT22;62506;46.070;14.492;2023-04-24T08:09:24;22.50;56.90
64718;DHT22;62506;46.070;14.492;2023-04-24T08:11:49;22.50;56.90
64718;DHT22;62506;46.070;14.492;2023-04-24T08:14:15;22.50;56.80
64718;DHT22;62506;46.070;14.492;2023-04-24T08:16:41;22.50;56.90
64718;DHT22;62506;46.070;14.492;2023-04-24T08:19:06;22.50;56.80
64718;DHT22;62506;46.070;14.492;2023-04-24T08:21:32;22.50;56.80
64718;DHT22;62506;46.070;14.492;2023-04-24T08:23:57;22.50;56.80
64718;DHT22;62506;46.070;14.492;2023-04-24T08:26:23;22.50;56.80
64718;DHT22;62506;46.070;14.492;2023-04-24T08:28:49;22.50;56.80
64718;DHT22;62506;46.070;14.492;2023-04-24T08:31:14;22.50;56.80
64718;DHT22;62506;46.070;14.492;2023-04-24T08:33:40;22.50;57.10
64718;DHT22;62506;46.070;14.492;2023-04-24T08:36:06;22.50;57.10
64718;DHT22;62506;46.070;14.492;2023-04-24T08:38:32;22.50;57.00
64718;DHT22;62506;46.070;14.492;2023-04-24T08:40:58;22.50;56.90
64718;DHT22;62506;46.070;14.492;2023-04-24T08:43:24;22.40;57.00
64718;DHT22;62506;46.070;14.492;2023-04-24T08:45:51;22.40;57.00
64718;DHT22;62506;46.070;14.492;2023-04-24T08:48:17;22.40;57.00
64718;DHT22;62506;46.070;14.492;2023-04-24T08:50:42;22.40;57.10
64718;DHT22;62506;46.070;14.492;2023-04-24T08:53:10;22.40;57.00
64718;DHT22;62506;46.070;14.492;2023-04-24T08:55:35;22.40;57.10
64718;DHT22;62506;46.070;14.492;2023-04-24T08:58:02;22.40;57.10
64718;DHT22;62506;46.070;14.492;2023-04-24T09:00:28;22.30;57.00
64718;DHT22;62506;46.070;14.492;2023-04-24T09:02:54;22.30;57.00
64718;DHT22;62506;46.070;14.492;2023-04-24T09:05:21;22.30;57.10
64718;DHT22;62506;46.070;14.492;2023-04-24T09:07:49;22.30;57.20
64718;DHT22;62506;46.070;14.492;2023-04-24T09:10:16;22.30;57.20
64718;DHT22;62506;46.070;14.492;2023-04-24T09:12:41;22.30;57.20
64718;DHT22;62506;46.070;14.492;2023-04-24T09:15:07;22.30;58.00
64718;DHT22;62506;46.070;14.492;2023-04-24T09:17:33;22.30;58.10
64718;DHT22;62506;46.070;14.492;2023-04-24T09:19:59;22.30;58.10
64718;DHT22;62506;46.070;14.492;2023-04-24T09:22:25;22.30;58.20
64718;DHT22;62506;46.070;14.492;2023-04-24T09:24:59;22.30;58.40
64718;DHT22;62506;46.070;14.492;2023-04-24T09:27:25;22.40;58.80
64718;DHT22;62506;46.070;14.492;2023-04-24T09:29:54;22.40;58.50
64718;DHT22;62506;46.070;14.492;2023-04-24T09:32:21;22.50;58.00
64718;DHT22;62506;46.070;14.492;2023-04-24T09:37:36;22.40;58.30
64718;DHT22;62506;46.070;14.492;2023-04-24T09:40:18;22.40;58.30
64718;DHT22;62506;46.070;14.492;2023-04-24T09:42:51;22.50;58.40
64718;DHT22;62506;46.070;14.492;2023-04-24T09:45:17;22.50;58.20
64718;DHT22;62506;46.070;14.492;2023-04-24T09:47:43;22.60;58.30
64718;DHT22;62506;46.070;14.492;2023-04-24T09:50:16;22.50;58.10
64718;DHT22;62506;46.070;14.492;2023-04-24T09:52:42;22.60;58.10
64718;DHT22;62506;46.070;14.492;2023-04-24T09:55:12;22.60;58.10
64718;DHT22;62506;46.070;14.492;2023-04-24T09:57:46;22.60;58.00
64718;DHT22;62506;46.070;14.492;2023-04-24T10:00:12;22.60;58.00
64718;DHT22;62506;46.070;14.492;2023-04-24T10:02:38;22.60;57.90
64718;DHT22;62506;46.070;14.492;2023-04-24T10:05:04;22.60;57.80
64718;DHT22;62506;46.070;14.492;2023-04-24T10:07:29;22.60;57.80
64718;DHT22;62506;46.070;14.492;2023-04-24T10:09:57;22.60;57.80
64718;DHT22;62506;46.070;14.492;2023-04-24T10:12:23;22.70;57.80
64718;DHT22;62506;46.070;14.492;2023-04-24T10:14:50;22.70;57.90
64718;DHT22;62506;46.070;14.492;2023-04-24T10:17:15;22.70;57.90
64718;DHT22;62506;46.070;14.492;2023-04-24T10:19:41;22.70;57.80
64718;DHT22;62506;46.070;14.492;2023-04-24T10:22:07;22.70;57.80
64718;DHT22;62506;46.070;14.492;2023-04-24T10:24:33;22.70;57.80
64718;DHT22;62506;46.070;14.492;2023-04-24T10:27:02;22.70;57.80
64718;DHT22;62506;46.070;14.492;2023-04-24T10:29:28;22.60;57.80
64718;DHT22;62506;46.070;14.492;2023-04-24T10:31:56;22.70;57.80
64718;DHT22;62506;46.070;14.492;2023-04-24T10:34:22;22.70;57.70
64718;DHT22;62506;46.070;14.492;2023-04-24T10:36:50;22.70;57.70
64718;DHT22;62506;46.070;14.492;2023-04-24T10:39:16;22.70;57.70
64718;DHT22;62506;46.070;14.492;2023-04-24T10:41:42;22.70;57.60
64718;DHT22;62506;46.070;14.492;2023-04-24T10:44:08;22.70;57.70
64718;DHT22;62506;46.070;14.492;2023-04-24T10:46:35;22.70;57.60
64718;DHT22;62506;46.070;14.492;2023-04-24T10:49:05;22.70;57.70
64718;DHT22;62506;46.070;14.492;2023-04-24T10:55:11;22.70;57.80
64718;DHT22;62506;46.070;14.492;2023-04-24T10:59:43;22.70;57.60
64718;DHT22;62506;46.070;14.492;2023-04-24T11:02:09;22.70;57.60
64718;DHT22;62506;46.070;14.492;2023-04-24T11:04:34;22.70;57.60
64718;DHT22;62506;46.070;14.492;2023-04-24T11:07:00;22.70;57.90
64718;DHT22;62506;46.070;14.492;2023-04-24T11:09:27;22.70;57.80
64718;DHT22;62506;46.070;14.492;2023-04-24T11:12:03;22.70;57.10
64718;DHT22;62506;46.070;14.492;2023-04-24T11:14:30;22.80;57.10
64718;DHT22;62506;46.070;14.492;2023-04-24T11:16:55;22.80;57.10
64718;DHT22;62506;46.070;14.492;2023-04-24T11:19:23;22.70;57.10
64718;DHT22;62506;46.070;14.492;2023-04-24T11:21:57;22.70;57.30
64718;DHT22;62506;46.070;14.492;2023-04-24T11:26:55;22.70;57.80
64718;DHT22;62506;46.070;14.492;2023-04-24T11:29:22;22.70;57.90
64718;DHT22;62506;46.070;14.492;2023-04-24T11:31:47;22.70;58.10
64718;DHT22;62506;46.070;14.492;2023-04-24T11:34:15;22.70;57.80
64718;DHT22;62506;46.070;14.492;2023-04-24T11:36:45;22.60;57.90
64718;DHT22;62506;46.070;14.492;2023-04-24T11:39:11;22.60;58.10
64718;DHT22;62506;46.070;14.492;2023-04-24T11:41:36;22.60;58.40
64718;DHT22;62506;46.070;14.492;2023-04-24T11:44:08;22.60;58.20
64718;DHT22;62506;46.070;14.492;2023-04-24T11:46:34;22.60;58.40
64718;DHT22;62506;46.070;14.492;2023-04-24T11:48:59;22.60;58.40
64718;DHT22;62506;46.070;14.492;2023-04-24T11:51:26;22.60;58.50
64718;DHT22;62506;46.070;14.492;2023-04-24T11:53:52;22.70;58.40
64718;DHT22;62506;46.070;14.492;2023-04-24T11:56:18;22.70;58.60
64718;DHT22;62506;46.070;14.492;2023-04-24T11:58:45;22.70;59.20
64718;DHT22;62506;46.070;14.492;2023-04-24T12:01:11;22.70;61.00
64718;DHT22;62506;46.070;14.492;2023-04-24T12:03:36;22.70;60.40
64718;DHT22;62506;46.070;14.492;2023-04-24T12:06:08;22.70;61.20
64718;DHT22;62506;46.070;14.492;2023-04-24T12:08:34;22.80;63.00
64718;DHT22;62506;46.070;14.492;2023-04-24T12:11:01;22.80;63.10
64718;DHT22;62506;46.070;14.492;2023-04-24T12:13:27;22.80;63.10
64718;DHT22;62506;46.070;14.492;2023-04-24T12:15:53;22.70;63.00
64718;DHT22;62506;46.070;14.492;2023-04-24T12:18:18;22.80;63.20
64718;DHT22;62506;46.070;14.492;2023-04-24T12:20:47;22.80;63.00
64718;DHT22;62506;46.070;14.492;2023-04-24T12:23:12;22.80;63.00
64718;DHT22;62506;46.070;14.492;2023-04-24T12:25:38;22.80;62.80
64718;DHT22;62506;46.070;14.492;2023-04-24T12:30:33;22.80;62.50
64718;DHT22;62506;46.070;14.492;2023-04-24T12:32:59;22.80;62.30
64718;DHT22;62506;46.070;14.492;2023-04-24T12:35:29;22.80;63.30
64718;DHT22;62506;46.070;14.492;2023-04-24T12:38:06;22.80;62.30
64718;DHT22;62506;46.070;14.492;2023-04-24T12:40:33;22.80;62.30
64718;DHT22;62506;46.070;14.492;2023-04-24T12:42:58;22.80;62.20
64718;DHT22;62506;46.070;14.492;2023-04-24T12:45:24;22.90;62.20
64718;DHT22;62506;46.070;14.492;2023-04-24T12:47:50;22.90;62.00
64718;DHT22;62506;46.070;14.492;2023-04-24T12:50:16;22.90;62.00
64718;DHT22;62506;46.070;14.492;2023-04-24T12:52:42;22.90;62.40
64718;DHT22;62506;46.070;14.492;2023-04-24T12:55:08;23.00;62.10
64718;DHT22;62506;46.070;14.492;2023-04-24T12:57:34;23.00;61.80
64718;DHT22;62506;46.070;14.492;2023-04-24T13:00:00;22.90;61.90
64718;DHT22;62506;46.070;14.492;2023-04-24T13:02:27;22.90;61.80
64718;DHT22;62506;46.070;14.492;2023-04-24T13:04:54;22.90;61.80
64718;DHT22;62506;46.070;14.492;2023-04-24T13:07:20;23.00;61.60
64718;DHT22;62506;46.070;14.492;2023-04-24T13:09:45;23.00;61.40
64718;DHT22;62506;46.070;14.492;2023-04-24T13:12:14;23.00;61.10
64718;DHT22;62506;46.070;14.492;2023-04-24T13:14:39;23.00;61.10
64718;DHT22;62506;46.070;14.492;2023-04-24T13:17:05;23.00;60.60
64718;DHT22;62506;46.070;14.492;2023-04-24T13:19:35;22.90;59.80
64718;DHT22;62506;46.070;14.492;2023-04-24T13:22:01;22.90;60.40
64718;DHT22;62506;46.070;14.492;2023-04-24T13:24:27;22.90;60.60
64718;DHT22;62506;46.070;14.492;2023-04-24T13:26:52;22.90;60.50
64718;DHT22;62506;46.070;14.492;2023-04-24T13:29:18;22.90;60.70
64718;DHT22;62506;46.070;14.492;2023-04-24T13:31:43;22.90;60.80
64718;DHT22;62506;46.070;14.492;2023-04-24T13:34:09;22.90;59.60
64718;DHT22;62506;46.070;14.492;2023-04-24T13:36:35;22.80;59.70
64718;DHT22;62506;46.070;14.492;2023-04-24T13:39:01;22.80;59.90
64718;DHT22;62506;46.070;14.492;2023-04-24T13:41:26;22.80;60.00
64718;DHT22;62506;46.070;14.492;2023-04-24T13:43:52;22.80;60.10
64718;DHT22;62506;46.070;14.492;2023-04-24T13:46:17;22.80;60.00
64718;DHT22;62506;46.070;14.492;2023-04-24T13:48:43;22.70;60.00
64718;DHT22;62506;46.070;14.492;2023-04-24T13:51:08;22.70;60.00
64718;DHT22;62506;46.070;14.492;2023-04-24T13:53:34;22.70;60.20
64718;DHT22;62506;46.070;14.492;2023-04-24T13:56:03;22.70;60.20
64718;DHT22;62506;46.070;14.492;2023-04-24T13:58:29;22.70;60.20
64718;DHT22;62506;46.070;14.492;2023-04-24T14:00:54;22.60;60.10
64718;DHT22;62506;46.070;14.492;2023-04-24T14:03:20;22.70;60.20
64718;DHT22;62506;46.070;14.492;2023-04-24T14:05:46;22.70;60.10
64718;DHT22;62506;46.070;14.492;2023-04-24T14:08:11;22.70;60.10
64718;DHT22;62506;46.070;14.492;2023-04-24T14:10:37;22.60;60.10
64718;DHT22;62506;46.070;14.492;2023-04-24T14:13:02;22.70;60.00
64718;DHT22;62506;46.070;14.492;2023-04-24T14:15:28;22.60;60.00
64718;DHT22;62506;46.070;14.492;2023-04-24T14:17:53;22.60;60.20
64718;DHT22;62506;46.070;14.492;2023-04-24T14:20:19;22.60;60.20
64718;DHT22;62506;46.070;14.492;2023-04-24T14:22:45;22.60;60.20
64718;DHT22;62506;46.070;14.492;2023-04-24T14:25:11;22.60;60.20
64718;DHT22;62506;46.070;14.492;2023-04-24T14:27:36;22.60;60.20
64718;DHT22;62506;46.070;14.492;2023-04-24T14:30:02;22.60;60.20
64718;DHT22;62506;46.070;14.492;2023-04-24T14:32:28;22.60;60.10
64718;DHT22;62506;46.070;14.492;2023-04-24T14:34:53;22.60;60.00
64718;DHT22;62506;46.070;14.492;2023-04-24T14:37:19;22.60;60.00
64718;DHT22;62506;46.070;14.492;2023-04-24T14:39:45;22.60;60.00
64718;DHT22;62506;46.070;14.492;2023-04-24T14:42:10;22.60;60.00
64718;DHT22;62506;46.070;14.492;2023-04-24T14:44:36;22.60;60.00
64718;DHT22;62506;46.070;14.492;2023-04-24T14:47:01;22.60;60.50
64718;DHT22;62506;46.070;14.492;2023-04-24T14:49:29;22.60;60.00
64718;DHT22;62506;46.070;14.492;2023-04-24T14:51:55;22.60;60.00
64718;DHT22;62506;46.070;14.492;2023-04-24T14:54:21;22.60;60.00
64718;DHT22;62506;46.070;14.492;2023-04-24T14:56:48;22.60;60.00
64718;DHT22;62506;46.070;14.492;2023-04-24T14:59:14;22.60;60.00
64718;DHT22;62506;46.070;14.492;2023-04-24T15:01:39;22.60;60.00
64718;DHT22;62506;46.070;14.492;2023-04-24T15:04:05;22.60;60.00
64718;DHT22;62506;46.070;14.492;2023-04-24T15:06:31;22.50;60.00
64718;DHT22;62506;46.070;14.492;2023-04-24T15:08:57;22.50;60.00
64718;DHT22;62506;46.070;14.492;2023-04-24T15:11:22;22.50;60.00
64718;DHT22;62506;46.070;14.492;2023-04-24T15:13:48;22.50;60.10
64718;DHT22;62506;46.070;14.492;2023-04-24T15:16:13;22.50;60.00
64718;DHT22;62506;46.070;14.492;2023-04-24T15:18:39;22.50;60.00
64718;DHT22;62506;46.070;14.492;2023-04-24T15:21:04;22.50;60.00
64718;DHT22;62506;46.070;14.492;2023-04-24T15:23:30;22.50;59.90
64718;DHT22;62506;46.070;14.492;2023-04-24T15:25:56;22.60;59.90